sensor_id;sensor_type;location;lat;lon;timestamp;pressure;altitude;pressure_sealevel;temperature;humidity
20909;BME280;10614;53.198;6.570;2024-02-26T00:00:29;100372.19;;;2.93;100.00
20909;BME280;10614;53.198;6.570;2024-02-26T00:02:31;100373.09;;;2.91;100.00
20909;BME280;10614;53.198;6.570;2024-02-26T00:04:38;100376.53;;;2.91;100.00
20909;BME280;10614;53.198;6.570;2024-02-26T00:06:41;100371.34;;;2.90;100.00
20909;BME280;10614;53.198;6.570;2024-02-26T00:08:43;100376.56;;;2.90;100.00
20909;BME280;10614;53.198;6.570;2024-02-26T00:10:46;100348.16;;;2.78;100.00
20909;BME280;10614;53.198;6.570;2024-02-26T00:12:47;100351.59;;;2.78;100.00
20909;BME280;10614;53.198;6.570;2024-02-26T00:14:49;100358.47;;;2.82;100.00
20909;BME280;10614;53.198;6.570;2024-02-26T00:16:53;100364.50;;;2.86;100.00
20909;BME280;10614;53.198;6.570;2024-02-26T00:18:55;100366.22;;;2.85;100.00
20909;BME280;10614;53.198;6.570;2024-02-26T00:20:57;100356.78;;;2.81;100.00
20909;BME280;10614;53.198;6.570;2024-02-26T00:22:59;100367.13;;;2.83;100.00
20909;BME280;10614;53.198;6.570;2024-02-26T00:25:01;100370.59;;;2.83;100.00
20909;BME280;10614;53.198;6.570;2024-02-26T00:27:04;100347.41;;;2.71;100.00
20909;BME280;10614;53.198;6.570;2024-02-26T00:29:06;100348.31;;;2.67;100.00
20909;BME280;10614;53.198;6.570;2024-02-26T00:31:08;100347.44;;;2.68;100.00
20909;BME280;10614;53.198;6.570;2024-02-26T00:33:10;100370.59;;;2.83;100.00
20909;BME280;10614;53.198;6.570;2024-02-26T00:35:12;100374.91;;;2.86;100.00
20909;BME280;10614;53.198;6.570;2024-02-26T00:37:14;100368.88;;;2.84;100.00
20909;BME280;10614;53.198;6.570;2024-02-26T00:39:16;100354.22;;;2.78;100.00
20909;BME280;10614;53.198;6.570;2024-02-26T00:41:19;100379.06;;;2.94;100.00
20909;BME280;10614;53.198;6.570;2024-02-26T00:43:22;100374.75;;;2.95;100.00
20909;BME280;10614;53.198;6.570;2024-02-26T00:45:24;100385.13;;;2.96;100.00
20909;BME280;10614;53.198;6.570;2024-02-26T00:47:26;100383.34;;;3.00;100.00
20909;BME280;10614;53.198;6.570;2024-02-26T00:49:30;100378.16;;;2.97;100.00
20909;BME280;10614;53.198;6.570;2024-02-26T00:51:32;100367.88;;;2.91;100.00
20909;BME280;10614;53.198;6.570;2024-02-26T00:53:33;100379.00;;;3.01;100.00
20909;BME280;10614;53.198;6.570;2024-02-26T00:55:36;100384.19;;;3.01;100.00
20909;BME280;10614;53.198;6.570;2024-02-26T00:57:37;100382.44;;;3.03;100.00
20909;BME280;10614;53.198;6.570;2024-02-26T00:59:42;100385.03;;;3.01;100.00
20909;BME280;10614;53.198;6.570;2024-02-26T01:01:44;100384.19;;;3.01;100.00
20909;BME280;10614;53.198;6.570;2024-02-26T01:03:45;100361.88;;;2.87;100.00
20909;BME280;10614;53.198;6.570;2024-02-26T01:05:47;100354.13;;;2.83;100.00
20909;BME280;10614;53.198;6.570;2024-02-26T01:07:49;100386.88;;;2.96;100.00
20909;BME280;10614;53.198;6.570;2024-02-26T01:09:51;100337.91;;;2.67;100.00
20909;BME280;10614;53.198;6.570;2024-02-26T01:11:52;100388.69;;;2.91;100.00
20909;BME280;10614;53.198;6.570;2024-02-26T01:13:54;100368.16;;;2.72;100.00
20909;BME280;10614;53.198;6.570;2024-02-26T01:15:58;100386.16;;;2.86;100.00
20909;BME280;10614;53.198;6.570;2024-02-26T01:18:01;100363.91;;;2.68;100.00
20909;BME280;10614;53.198;6.570;2024-02-26T01:20:03;100377.72;;;2.72;100.00
20909;BME280;10614;53.198;6.570;2024-02-26T01:22:05;100395.78;;;2.80;100.00
20909;BME280;10614;53.198;6.570;2024-02-26T01:24:07;100389.75;;;2.76;100.00
20909;BME280;10614;53.198;6.570;2024-02-26T01:26:10;100398.44;;;2.77;100.00
20909;BME280;10614;53.198;6.570;2024-02-26T01:28:12;100405.34;;;2.78;100.00
20909;BME280;10614;53.198;6.570;2024-02-26T01:30:14;100411.44;;;2.75;100.00
20909;BME280;10614;53.198;6.570;2024-02-26T01:32:19;100405.41;;;2.73;100.00
20909;BME280;10614;53.198;6.570;2024-02-26T01:34:21;100392.59;;;2.62;100.00
20909;BME280;10614;53.198;6.570;2024-02-26T01:36:23;100406.31;;;2.70;100.00
20909;BME280;10614;53.198;6.570;2024-02-26T01:38:25;100407.22;;;2.69;100.00
20909;BME280;10614;53.198;6.570;2024-02-26T01:40:27;100406.38;;;2.66;100.00
20909;BME280;10614;53.198;6.570;2024-02-26T01:42:30;100402.03;;;2.66;100.00
20909;BME280;10614;53.198;6.570;2024-02-26T01:44:33;100380.66;;;2.47;100.00
20909;BME280;10614;53.198;6.570;2024-02-26T01:46:35;100404.69;;;2.62;100.00
20909;BME280;10614;53.198;6.570;2024-02-26T01:48:40;100413.38;;;2.62;100.00
20909;BME280;10614;53.198;6.570;2024-02-26T01:50:42;100414.25;;;2.60;100.00
20909;BME280;10614;53.198;6.570;2024-02-26T01:52:45;100416.00;;;2.59;100.00
20909;BME280;10614;53.198;6.570;2024-02-26T01:54:47;100421.25;;;2.58;100.00
20909;BME280;10614;53.198;6.570;2024-02-26T01:56:49;100416.03;;;2.58;100.00
20909;BME280;10614;53.198;6.570;2024-02-26T01:58:52;100403.13;;;2.51;100.00
20909;BME280;10614;53.198;6.570;2024-02-26T02:00:54;100411.72;;;2.55;100.00
20909;BME280;10614;53.198;6.570;2024-02-26T02:02:56;100398.00;;;2.47;100.00
20909;BME280;10614;53.198;6.570;2024-02-26T02:05:00;100419.56;;;2.53;100.00
20909;BME280;10614;53.198;6.570;2024-02-26T02:07:01;100411.78;;;2.52;100.00
20909;BME280;10614;53.198;6.570;2024-02-26T02:09:03;100408.31;;;2.51;100.00
20909;BME280;10614;53.198;6.570;2024-02-26T02:11:07;100411.78;;;2.50;100.00
20909;BME280;10614;53.198;6.570;2024-02-26T02:13:11;100416.97;;;2.50;100.00
20909;BME280;10614;53.198;6.570;2024-02-26T02:15:14;100403.19;;;2.47;100.00
20909;BME280;10614;53.198;6.570;2024-02-26T02:17:16;100400.63;;;2.44;100.00
20909;BME280;10614;53.198;6.570;2024-02-26T02:19:18;100410.13;;;2.46;100.00
20909;BME280;10614;53.198;6.570;2024-02-26T02:21:22;100409.34;;;2.40;100.00
20909;BME280;10614;53.198;6.570;2024-02-26T02:23:23;100410.19;;;2.42;100.00
20909;BME280;10614;53.198;6.570;2024-02-26T02:25:24;100412.78;;;2.40;100.00
20909;BME280;10614;53.198;6.570;2024-02-26T02:27:27;100416.25;;;2.42;100.00
20909;BME280;10614;53.198;6.570;2024-02-26T02:29:29;100409.34;;;2.40;100.00
20909;BME280;10614;53.198;6.570;2024-02-26T02:31:31;100407.66;;;2.37;100.00
20909;BME280;10614;53.198;6.570;2024-02-26T02:33:35;100417.16;;;2.38;100.00
20909;BME280;10614;53.198;6.570;2024-02-26T02:35:37;100417.16;;;2.38;100.00
20909;BME280;10614;53.198;6.570;2024-02-26T02:37:41;100416.28;;;2.38;100.00
20909;BME280;10614;53.198;6.570;2024-02-26T02:39:43;100368.22;;;2.07;100.00
20909;BME280;10614;53.198;6.570;2024-02-26T02:41:45;100413.72;;;2.36;100.00
20909;BME280;10614;53.198;6.570;2024-02-26T02:43:47;100421.53;;;2.35;100.00
20909;BME280;10614;53.198;6.570;2024-02-26T02:45:49;100424.13;;;2.35;100.00
20909;BME280;10614;53.198;6.570;2024-02-26T02:47:51;100425.00;;;2.35;100.00
20909;BME280;10614;53.198;6.570;2024-02-26T02:49:53;100420.75;;;2.29;100.00
20909;BME280;10614;53.198;6.570;2024-02-26T02:51:55;100418.16;;;2.28;100.00
20909;BME280;10614;53.198;6.570;2024-02-26T02:53:59;100421.63;;;2.27;100.00
20909;BME280;10614;53.198;6.570;2024-02-26T02:56:01;100438.88;;;2.32;100.00
20909;BME280;10614;53.198;6.570;2024-02-26T02:58:04;100438.88;;;2.32;100.00
20909;BME280;10614;53.198;6.570;2024-02-26T03:00:07;100443.19;;;2.33;100.00
20909;BME280;10614;53.198;6.570;2024-02-26T03:02:09;100442.31;;;2.33;100.00
20909;BME280;10614;53.198;6.570;2024-02-26T03:04:12;100443.19;;;2.33;100.00
20909;BME280;10614;53.198;6.570;2024-02-26T03:06:12;100427.75;;;2.23;100.00
20909;BME280;10614;53.198;6.570;2024-02-26T03:08:16;100450.13;;;2.33;100.00
20909;BME280;10614;53.198;6.570;2024-02-26T03:10:18;100444.94;;;2.31;100.00
20909;BME280;10614;53.198;6.570;2024-02-26T03:12:20;100452.72;;;2.35;100.00
20909;BME280;10614;53.198;6.570;2024-02-26T03:14:22;100447.53;;;2.31;100.00
20909;BME280;10614;53.198;6.570;2024-02-26T03:16:24;100457.88;;;2.36;100.00
20909;BME280;10614;53.198;6.570;2024-02-26T03:18:26;100451.88;;;2.32;100.00
20909;BME280;10614;53.198;6.570;2024-02-26T03:20:28;100470.00;;;2.37;100.00
20909;BME280;10614;53.198;6.570;2024-02-26T03:22:30;100468.25;;;2.38;100.00
20909;BME280;10614;53.198;6.570;2024-02-26T03:24:31;100475.19;;;2.34;100.00
20909;BME280;10614;53.198;6.570;2024-02-26T03:26:34;100482.94;;;2.39;100.00
20909;BME280;10614;53.198;6.570;2024-02-26T03:28:36;100482.09;;;2.38;100.00
20909;BME280;10614;53.198;6.570;2024-02-26T03:30:38;100486.44;;;2.36;100.00
20909;BME280;10614;53.198;6.570;2024-02-26T03:32:41;100450.28;;;2.18;100.00
20909;BME280;10614;53.198;6.570;2024-02-26T03:34:43;100485.59;;;2.34;100.00
20909;BME280;10614;53.198;6.570;2024-02-26T03:36:45;100482.13;;;2.35;100.00
20909;BME280;10614;53.198;6.570;2024-02-26T03:38:47;100488.22;;;2.32;100.00
20909;BME280;10614;53.198;6.570;2024-02-26T03:40:50;100459.88;;;2.14;100.00
20909;BME280;10614;53.198;6.570;2024-02-26T03:42:53;100490.78;;;2.34;100.00
20909;BME280;10614;53.198;6.570;2024-02-26T03:44:57;100463.25;;;2.21;100.00
20909;BME280;10614;53.198;6.570;2024-02-26T03:46:59;100467.66;;;2.16;100.00
20909;BME280;10614;53.198;6.570;2024-02-26T03:49:01;100475.41;;;2.19;100.00
20909;BME280;10614;53.198;6.570;2024-02-26T03:51:04;100501.19;;;2.34;100.00
20909;BME280;10614;53.198;6.570;2024-02-26T03:53:06;100497.75;;;2.32;100.00
20909;BME280;10614;53.198;6.570;2024-02-26T03:55:09;100502.97;;;2.32;100.00
20909;BME280;10614;53.198;6.570;2024-02-26T03:57:11;100502.06;;;2.31;100.00
20909;BME280;10614;53.198;6.570;2024-02-26T03:59:15;100496.06;;;2.28;100.00
20909;BME280;10614;53.198;6.570;2024-02-26T04:01:17;100500.38;;;2.32;100.00
20909;BME280;10614;53.198;6.570;2024-02-26T04:03:19;100511.59;;;2.32;100.00
20909;BME280;10614;53.198;6.570;2024-02-26T04:05:21;100513.34;;;2.32;100.00
20909;BME280;10614;53.198;6.570;2024-02-26T04:07:23;100510.75;;;2.29;100.00
20909;BME280;10614;53.198;6.570;2024-02-26T04:09:28;100513.34;;;2.32;100.00
20909;BME280;10614;53.198;6.570;2024-02-26T04:11:30;100514.19;;;2.32;100.00
20909;BME280;10614;53.198;6.570;2024-02-26T04:13:31;100512.50;;;2.28;100.00
20909;BME280;10614;53.198;6.570;2024-02-26T04:15:34;100492.72;;;2.18;100.00
20909;BME280;10614;53.198;6.570;2024-02-26T04:17:37;100521.97;;;2.34;100.00
20909;BME280;10614;53.198;6.570;2024-02-26T04:19:39;100515.91;;;2.33;100.00
20909;BME280;10614;53.198;6.570;2024-02-26T04:21:41;100519.34;;;2.36;100.00
20909;BME280;10614;53.198;6.570;2024-02-26T04:23:43;100528.00;;;2.38;100.00
20909;BME280;10614;53.198;6.570;2024-02-26T04:25:46;100525.41;;;2.36;100.00
20909;BME280;10614;53.198;6.570;2024-02-26T04:27:48;100520.19;;;2.36;100.00
20909;BME280;10614;53.198;6.570;2024-02-26T04:29:50;100535.75;;;2.41;100.00
20909;BME280;10614;53.198;6.570;2024-02-26T04:31:53;100511.66;;;2.26;100.00
20909;BME280;10614;53.198;6.570;2024-02-26T04:33:55;100531.44;;;2.41;100.00
20909;BME280;10614;53.198;6.570;2024-02-26T04:35:56;100527.94;;;2.41;100.00
20909;BME280;10614;53.198;6.570;2024-02-26T04:37:58;100527.03;;;2.46;100.00
20909;BME280;10614;53.198;6.570;2024-02-26T04:40:01;100533.94;;;2.47;100.00
20909;BME280;10614;53.198;6.570;2024-02-26T04:42:04;100533.09;;;2.45;100.00
20909;BME280;10614;53.198;6.570;2024-02-26T04:44:06;100537.44;;;2.46;100.00
20909;BME280;10614;53.198;6.570;2024-02-26T04:46:08;100542.56;;;2.49;100.00
20909;BME280;10614;53.198;6.570;2024-02-26T04:48:10;100544.31;;;2.47;100.00
20909;BME280;10614;53.198;6.570;2024-02-26T04:50:12;100543.44;;;2.50;100.00
20909;BME280;10614;53.198;6.570;2024-02-26T04:52:14;100503.78;;;2.34;100.00
20909;BME280;10614;53.198;6.570;2024-02-26T04:54:16;100526.25;;;2.38;100.00
20909;BME280;10614;53.198;6.570;2024-02-26T04:56:17;100555.53;;;2.52;100.00
20909;BME280;10614;53.198;6.570;2024-02-26T04:58:19;100555.50;;;2.54;100.00
20909;BME280;10614;53.198;6.570;2024-02-26T05:00:21;100540.03;;;2.43;100.00
20909;BME280;10614;53.198;6.570;2024-02-26T05:02:23;100558.09;;;2.56;100.00
20909;BME280;10614;53.198;6.570;2024-02-26T05:04:26;100567.63;;;2.55;100.00
20909;BME280;10614;53.198;6.570;2024-02-26T05:06:28;100561.59;;;2.51;100.00
20909;BME280;10614;53.198;6.570;2024-02-26T05:08:31;100569.34;;;2.54;100.00
20909;BME280;10614;53.198;6.570;2024-02-26T05:10:36;100571.94;;;2.54;100.00
20909;BME280;10614;53.198;6.570;2024-02-26T05:12:40;100572.00;;;2.53;100.00
20909;BME280;10614;53.198;6.570;2024-02-26T05:14:43;100577.16;;;2.54;100.00
20909;BME280;10614;53.198;6.570;2024-02-26T05:16:45;100576.34;;;2.51;100.00
20909;BME280;10614;53.198;6.570;2024-02-26T05:18:47;100584.09;;;2.52;100.00
20909;BME280;10614;53.198;6.570;2024-02-26T05:20:50;100577.19;;;2.53;100.00
20909;BME280;10614;53.198;6.570;2024-02-26T05:22:53;100584.97;;;2.53;100.00
20909;BME280;10614;53.198;6.570;2024-02-26T05:24:55;100577.19;;;2.53;100.00
20909;BME280;10614;53.198;6.570;2024-02-26T05:26:57;100579.78;;;2.53;100.00
20909;BME280;10614;53.198;6.570;2024-02-26T05:28:59;100587.53;;;2.54;100.00
20909;BME280;10614;53.198;6.570;2024-02-26T05:31:00;100595.34;;;2.54;100.00
20909;BME280;10614;53.198;6.570;2024-02-26T05:33:04;100604.00;;;2.55;100.00
20909;BME280;10614;53.198;6.570;2024-02-26T05:35:06;100602.28;;;2.56;100.00
20909;BME280;10614;53.198;6.570;2024-02-26T05:37:10;100602.28;;;2.56;100.00
20909;BME280;10614;53.198;6.570;2024-02-26T05:39:12;100597.94;;;2.56;100.00
20909;BME280;10614;53.198;6.570;2024-02-26T05:41:15;100597.94;;;2.54;100.00
20909;BME280;10614;53.198;6.570;2024-02-26T05:43:20;100603.13;;;2.56;100.00
20909;BME280;10614;53.198;6.570;2024-02-26T05:45:22;100603.97;;;2.57;100.00
20909;BME280;10614;53.198;6.570;2024-02-26T05:47:24;100585.94;;;2.43;100.00
20909;BME280;10614;53.198;6.570;2024-02-26T05:49:26;100617.88;;;2.56;100.00
20909;BME280;10614;53.198;6.570;2024-02-26T05:51:28;100610.88;;;2.59;100.00
20909;BME280;10614;53.198;6.570;2024-02-26T05:53:32;100594.56;;;2.46;100.00
20909;BME280;10614;53.198;6.570;2024-02-26T05:55:32;100594.56;;;2.46;100.00
20909;BME280;10614;53.198;6.570;2024-02-26T05:57:34;100613.47;;;2.61;100.00
20909;BME280;10614;53.198;6.570;2024-02-26T05:59:38;100621.31;;;2.58;100.00
20909;BME280;10614;53.198;6.570;2024-02-26T06:01:40;100622.13;;;2.61;100.00
20909;BME280;10614;53.198;6.570;2024-02-26T06:03:42;100623.88;;;2.61;100.00
20909;BME280;10614;53.198;6.570;2024-02-26T06:05:43;100619.53;;;2.60;100.00
20909;BME280;10614;53.198;6.570;2024-02-26T06:07:45;100629.91;;;2.63;100.00
20909;BME280;10614;53.198;6.570;2024-02-26T06:09:48;100629.03;;;2.64;100.00
20909;BME280;10614;53.198;6.570;2024-02-26T06:11:50;100608.41;;;2.48;100.00
20909;BME280;10614;53.198;6.570;2024-02-26T06:13:52;100644.63;;;2.64;100.00
20909;BME280;10614;53.198;6.570;2024-02-26T06:15:54;100641.16;;;2.63;100.00
20909;BME280;10614;53.198;6.570;2024-02-26T06:17:56;100648.97;;;2.63;100.00
20909;BME280;10614;53.198;6.570;2024-02-26T06:19:58;100644.63;;;2.64;100.00
20909;BME280;10614;53.198;6.570;2024-02-26T06:22:01;100639.41;;;2.65;100.00
20909;BME280;10614;53.198;6.570;2024-02-26T06:24:03;100650.66;;;2.66;100.00
20909;BME280;10614;53.198;6.570;2024-02-26T06:26:07;100636.88;;;2.61;100.00
20909;BME280;10614;53.198;6.570;2024-02-26T06:28:09;100643.75;;;2.65;100.00
20909;BME280;10614;53.198;6.570;2024-02-26T06:30:11;100648.91;;;2.66;100.00
20909;BME280;10614;53.198;6.570;2024-02-26T06:32:13;100654.13;;;2.66;100.00
20909;BME280;10614;53.198;6.570;2024-02-26T06:34:15;100648.97;;;2.62;100.00
20909;BME280;10614;53.198;6.570;2024-02-26T06:36:17;100655.84;;;2.66;100.00
20909;BME280;10614;53.198;6.570;2024-02-26T06:38:19;100614.56;;;2.40;100.00
20909;BME280;10614;53.198;6.570;2024-02-26T06:40:20;100663.63;;;2.69;100.00
20909;BME280;10614;53.198;6.570;2024-02-26T06:42:24;100667.09;;;2.66;100.00
20909;BME280;10614;53.198;6.570;2024-02-26T06:44:25;100675.75;;;2.70;100.00
20909;BME280;10614;53.198;6.570;2024-02-26T06:46:27;100655.06;;;2.61;100.00
20909;BME280;10614;53.198;6.570;2024-02-26T06:48:31;100672.31;;;2.68;100.00
20909;BME280;10614;53.198;6.570;2024-02-26T06:50:33;100675.75;;;2.70;100.00
20909;BME280;10614;53.198;6.570;2024-02-26T06:52:34;100680.03;;;2.74;100.00
20909;BME280;10614;53.198;6.570;2024-02-26T06:54:36;100679.16;;;2.75;100.00
20909;BME280;10614;53.198;6.570;2024-02-26T06:56:38;100683.47;;;2.76;100.00
20909;BME280;10614;53.198;6.570;2024-02-26T06:58:42;100668.84;;;2.66;100.00
20909;BME280;10614;53.198;6.570;2024-02-26T07:00:44;100687.78;;;2.79;100.00
20909;BME280;10614;53.198;6.570;2024-02-26T07:02:46;100679.97;;;2.82;100.00
20909;BME280;10614;53.198;6.570;2024-02-26T07:04:48;100694.66;;;2.84;100.00
20909;BME280;10614;53.198;6.570;2024-02-26T07:06:50;100674.00;;;2.72;100.00
20909;BME280;10614;53.198;6.570;2024-02-26T07:08:54;100697.25;;;2.86;100.00
20909;BME280;10614;53.198;6.570;2024-02-26T07:10:55;100698.97;;;2.87;100.00
20909;BME280;10614;53.198;6.570;2024-02-26T07:12:57;100693.75;;;2.88;100.00
20909;BME280;10614;53.198;6.570;2024-02-26T07:15:00;100704.13;;;2.91;100.00
20909;BME280;10614;53.198;6.570;2024-02-26T07:17:03;100698.06;;;2.89;100.00
20909;BME280;10614;53.198;6.570;2024-02-26T07:19:05;100675.66;;;2.76;100.00
20909;BME280;10614;53.198;6.570;2024-02-26T07:21:07;100712.75;;;2.93;100.00
20909;BME280;10614;53.198;6.570;2024-02-26T07:23:09;100721.38;;;2.99;100.00
20909;BME280;10614;53.198;6.570;2024-02-26T07:25:11;100714.41;;;2.99;100.00
20909;BME280;10614;53.198;6.570;2024-02-26T07:27:13;100714.47;;;2.98;100.00
20909;BME280;10614;53.198;6.570;2024-02-26T07:29:17;100671.34;;;2.77;100.00
20909;BME280;10614;53.198;6.570;2024-02-26T07:31:21;100720.41;;;3.06;100.00
20909;BME280;10614;53.198;6.570;2024-02-26T07:33:23;100726.47;;;3.08;100.00
20909;BME280;10614;53.198;6.570;2024-02-26T07:35:25;100716.16;;;2.99;100.00
20909;BME280;10614;53.198;6.570;2024-02-26T07:37:28;100737.69;;;3.13;100.00
20909;BME280;10614;53.198;6.570;2024-02-26T07:39:30;100736.88;;;3.09;100.00
20909;BME280;10614;53.198;6.570;2024-02-26T07:41:32;100736.88;;;3.09;100.00
20909;BME280;10614;53.198;6.570;2024-02-26T07:43:34;100735.88;;;3.18;100.00
20909;BME280;10614;53.198;6.570;2024-02-26T07:45:36;100723.88;;;3.08;100.00
20909;BME280;10614;53.198;6.570;2024-02-26T07:47:40;100725.47;;;3.21;100.00
20909;BME280;10614;53.198;6.570;2024-02-26T07:49:42;100727.16;;;3.24;100.00
20909;BME280;10614;53.198;6.570;2024-02-26T07:51:44;100747.03;;;3.29;100.00
20909;BME280;10614;53.198;6.570;2024-02-26T07:53:46;100753.94;;;3.32;100.00
20909;BME280;10614;53.198;6.570;2024-02-26T07:55:48;100743.53;;;3.33;100.00
20909;BME280;10614;53.198;6.570;2024-02-26T07:57:50;100759.13;;;3.33;100.00
20909;BME280;10614;53.198;6.570;2024-02-26T07:59:52;100754.78;;;3.35;100.00
20909;BME280;10614;53.198;6.570;2024-02-26T08:01:54;100759.06;;;3.38;100.00
20909;BME280;10614;53.198;6.570;2024-02-26T08:03:57;100760.78;;;3.39;100.00
20909;BME280;10614;53.198;6.570;2024-02-26T08:05:59;100752.97;;;3.42;100.00
20909;BME280;10614;53.198;6.570;2024-02-26T08:08:00;100757.28;;;3.45;100.00
20909;BME280;10614;53.198;6.570;2024-02-26T08:10:03;100748.56;;;3.46;100.00
20909;BME280;10614;53.198;6.570;2024-02-26T08:12:06;100750.28;;;3.48;100.00
20909;BME280;10614;53.198;6.570;2024-02-26T08:14:08;100756.31;;;3.52;100.00
20909;BME280;10614;53.198;6.570;2024-02-26T08:16:10;100757.13;;;3.55;100.00
20909;BME280;10614;53.198;6.570;2024-02-26T08:18:12;100760.56;;;3.59;100.00
20909;BME280;10614;53.198;6.570;2024-02-26T08:20:16;100757.94;;;3.61;100.00
20909;BME280;10614;53.198;6.570;2024-02-26T08:22:19;100751.00;;;3.61;100.00
20909;BME280;10614;53.198;6.570;2024-02-26T08:24:22;100752.63;;;3.68;100.00
20909;BME280;10614;53.198;6.570;2024-02-26T08:26:25;100744.81;;;3.68;100.00
20909;BME280;10614;53.198;6.570;2024-02-26T08:28:27;100762.09;;;3.74;100.00
20909;BME280;10614;53.198;6.570;2024-02-26T08:30:29;100760.31;;;3.77;100.00
20909;BME280;10614;53.198;6.570;2024-02-26T08:32:31;100755.97;;;3.76;100.00
20909;BME280;10614;53.198;6.570;2024-02-26T08:34:32;100756.88;;;3.77;100.00
20909;BME280;10614;53.198;6.570;2024-02-26T08:36:36;100770.69;;;3.79;100.00
20909;BME280;10614;53.198;6.570;2024-02-26T08:38:38;100777.59;;;3.83;100.00
20909;BME280;10614;53.198;6.570;2024-02-26T08:40:39;100784.56;;;3.81;100.00
20909;BME280;10614;53.198;6.570;2024-02-26T08:42:41;100790.59;;;3.85;100.00
20909;BME280;10614;53.198;6.570;2024-02-26T08:44:45;100804.47;;;3.87;100.00
20909;BME280;10614;53.198;6.570;2024-02-26T08:46:47;100808.78;;;3.88;100.00
20909;BME280;10614;53.198;6.570;2024-02-26T08:48:49;100800.06;;;3.92;100.00
20909;BME280;10614;53.198;6.570;2024-02-26T08:50:51;100795.69;;;3.94;100.00
20909;BME280;10614;53.198;6.570;2024-02-26T08:52:54;100793.94;;;3.96;100.00
20909;BME280;10614;53.198;6.570;2024-02-26T08:54:56;100798.25;;;3.98;100.00
20909;BME280;10614;53.198;6.570;2024-02-26T08:56:58;100806.91;;;3.97;100.00
20909;BME280;10614;53.198;6.570;2024-02-26T08:59:00;100808.59;;;4.03;100.00
20909;BME280;10614;53.198;6.570;2024-02-26T09:01:04;100790.47;;;3.94;100.00
20909;BME280;10614;53.198;6.570;2024-02-26T09:03:07;100806.72;;;4.11;100.00
20909;BME280;10614;53.198;6.570;2024-02-26T09:05:09;100788.66;;;3.99;100.00
20909;BME280;10614;53.198;6.570;2024-02-26T09:07:13;100786.00;;;4.04;100.00
20909;BME280;10614;53.198;6.570;2024-02-26T09:09:16;100815.19;;;4.27;100.00
20909;BME280;10614;53.198;6.570;2024-02-26T09:11:18;100818.66;;;4.29;100.00
20909;BME280;10614;53.198;6.570;2024-02-26T09:13:21;100817.72;;;4.32;100.00
20909;BME280;10614;53.198;6.570;2024-02-26T09:15:30;100805.69;;;4.25;100.00
20909;BME280;10614;53.198;6.570;2024-02-26T09:17:37;100819.38;;;4.39;100.00
20909;BME280;10614;53.198;6.570;2024-02-26T09:19:39;100831.47;;;4.41;100.00
20909;BME280;10614;53.198;6.570;2024-02-26T09:21:43;100830.56;;;4.44;100.00
20909;BME280;10614;53.198;6.570;2024-02-26T09:23:45;100831.41;;;4.46;100.00
20909;BME280;10614;53.198;6.570;2024-02-26T09:25:48;100835.72;;;4.49;100.00
20909;BME280;10614;53.198;6.570;2024-02-26T09:27:52;100831.41;;;4.46;100.00
20909;BME280;10614;53.198;6.570;2024-02-26T09:29:53;100827.09;;;4.45;100.00
20909;BME280;10614;53.198;6.570;2024-02-26T09:31:56;100840.81;;;4.56;100.00
20909;BME280;10614;53.198;6.570;2024-02-26T09:33:58;100832.97;;;4.58;100.00
20909;BME280;10614;53.198;6.570;2024-02-26T09:36:01;100843.28;;;4.65;100.00
20909;BME280;10614;53.198;6.570;2024-02-26T09:38:04;100844.19;;;4.64;100.00
20909;BME280;10614;53.198;6.570;2024-02-26T09:40:06;100849.25;;;4.72;100.00
20909;BME280;10614;53.198;6.570;2024-02-26T09:42:13;100860.47;;;4.79;100.00
20909;BME280;10614;53.198;6.570;2024-02-26T09:44:18;100857.84;;;4.79;100.00
20909;BME280;10614;53.198;6.570;2024-02-26T09:46:21;100832.00;;;4.65;100.00
20909;BME280;10614;53.198;6.570;2024-02-26T09:48:23;100851.81;;;4.77;100.00
20909;BME280;10614;53.198;6.570;2024-02-26T09:50:25;100867.28;;;4.88;100.00
20909;BME280;10614;53.198;6.570;2024-02-26T09:52:28;100872.44;;;4.92;100.00
20909;BME280;10614;53.198;6.570;2024-02-26T09:54:30;100855.09;;;4.90;100.00
20909;BME280;10614;53.198;6.570;2024-02-26T09:56:33;100872.22;;;5.03;100.00
20909;BME280;10614;53.198;6.570;2024-02-26T09:58:39;100883.56;;;5.03;100.00
20909;BME280;10614;53.198;6.570;2024-02-26T10:00:47;100882.66;;;5.06;100.00
20909;BME280;10614;53.198;6.570;2024-02-26T10:02:54;100871.47;;;4.96;100.00
20909;BME280;10614;53.198;6.570;2024-02-26T10:04:58;100888.56;;;5.14;100.00
20909;BME280;10614;53.198;6.570;2024-02-26T10:07:02;100889.41;;;5.18;100.00
20909;BME280;10614;53.198;6.570;2024-02-26T10:09:06;100898.00;;;5.23;100.00
20909;BME280;10614;53.198;6.570;2024-02-26T10:11:11;100885.03;;;5.20;100.00
20909;BME280;10614;53.198;6.570;2024-02-26T10:13:15;100896.13;;;5.31;100.00
20909;BME280;10614;53.198;6.570;2024-02-26T10:15:18;100890.03;;;5.32;100.00
20909;BME280;10614;53.198;6.570;2024-02-26T10:17:20;100902.94;;;5.40;100.00
20909;BME280;10614;53.198;6.570;2024-02-26T10:19:26;100901.25;;;5.37;100.00
20909;BME280;10614;53.198;6.570;2024-02-26T10:21:27;100906.38;;;5.42;100.00
20909;BME280;10614;53.198;6.570;2024-02-26T10:23:29;100902.09;;;5.38;100.00
20909;BME280;10614;53.198;6.570;2024-02-26T10:25:31;100915.19;;;5.36;100.00
20909;BME280;10614;53.198;6.570;2024-02-26T10:27:33;100916.97;;;5.34;100.00
20909;BME280;10614;53.198;6.570;2024-02-26T10:29:35;100915.28;;;5.32;100.00
20909;BME280;10614;53.198;6.570;2024-02-26T10:31:42;100926.56;;;5.32;100.00
20909;BME280;10614;53.198;6.570;2024-02-26T10:33:43;100904.22;;;5.16;100.00
20909;BME280;10614;53.198;6.570;2024-02-26T10:35:46;100927.47;;;5.29;100.00
20909;BME280;10614;53.198;6.570;2024-02-26T10:37:49;100939.69;;;5.27;100.00
20909;BME280;10614;53.198;6.570;2024-02-26T10:39:51;100935.25;;;5.33;100.00